Time;durP1;ratioP1;P1;durP2;ratioP2;P2;SDS_P1;SDS_P2;PMS_P1;PMS_P2;Temp;Humidity;BMP_temperature;BMP_pressure;BME280_temperature;BME280_humidity;BME280_pressure;Samples;Min_cycle;Max_cycle;Signal;HPM_P1;HPM_P2
2021/12/12 00:01:17;;;;;;;8.98;3.45;;;;;;;11.68;100.00;99357.03;5068729;28;20060;-74
2021/12/12 00:03:50;;;;;;;13.27;4.47;;;;;;;11.73;100.00;99393.31;5068825;28;20098;-75
2021/12/12 00:06:31;;;;;;;14.70;4.10;;;;;;;11.64;100.00;99335.44;5069275;28;20029;-75
2021/12/12 00:09:00;;;;;;;16.02;5.70;;;;;;;11.73;100.00;99375.22;5057878;28;20468;-75
2021/12/12 00:11:27;;;;;;;;;;;;;;;11.64;100.00;99374.22;5069965;28;20059;-78
2021/12/12 00:13:57;;;;;;;13.90;5.03;;;;;;;11.59;100.00;99360.38;5066938;28;20002;-77
2021/12/12 00:16:23;;;;;;;12.15;4.38;;;;;;;11.54;100.00;99358.53;5066852;28;20498;-74
2021/12/12 00:18:48;;;;;;;16.13;4.53;;;;;;;11.54;100.00;99353.38;5062983;28;20032;-77
2021/12/12 00:21:18;;;;;;;11.52;4.90;;;;;;;11.49;100.00;99366.25;5047276;28;20041;-75
2021/12/12 00:23:44;;;;;;;9.20;4.00;;;;;;;11.32;100.00;99328.06;5069852;28;20033;-76
2021/12/12 00:26:10;;;;;;;11.38;4.50;;;;;;;11.41;100.00;99347.16;5069885;28;20038;-72
2021/12/12 00:28:36;;;;;;;18.08;5.05;;;;;;;11.31;100.00;99340.97;5070397;28;20037;-75
2021/12/12 00:31:09;;;;;;;12.48;4.47;;;;;;;11.41;100.00;99357.50;5060601;28;20028;-74
2021/12/12 00:33:41;;;;;;;18.10;4.45;;;;;;;10.97;100.00;99301.69;5071815;28;20025;-75
2021/12/12 00:36:08;;;;;;;10.80;4.28;;;;;;;11.29;100.00;99338.38;5065324;28;20104;-75
2021/12/12 00:38:35;;;;;;;10.82;4.10;;;;;;;11.27;100.00;99334.03;5035683;28;20110;-70
2021/12/12 00:41:05;;;;;;;15.23;5.00;;;;;;;11.02;100.00;99320.72;5053450;28;20029;-72
2021/12/12 00:43:47;;;;;;;14.85;4.68;;;;;;;11.19;100.00;99343.38;5052748;28;20157;-71
2021/12/12 00:46:14;;;;;;;11.70;3.45;;;;;;;11.01;100.00;99318.97;5052872;28;20166;-68
2021/12/12 00:48:42;;;;;;;11.32;3.83;;;;;;;11.08;100.00;99349.22;5053268;28;20499;-68
2021/12/12 00:51:10;;;;;;;10.20;3.58;;;;;;;11.23;100.00;99355.50;5054699;28;20571;-72
2021/12/12 00:53:37;;;;;;;9.05;3.55;;;;;;;11.29;100.00;99420.16;5053007;28;20471;-71
2021/12/12 00:56:04;;;;;;;8.85;3.10;;;;;;;11.28;100.00;99418.47;5052743;28;20029;-73
2021/12/12 00:58:29;;;;;;;7.22;2.00;;;;;;;11.16;100.00;99406.19;5053004;28;20043;-75
2021/12/12 01:01:08;;;;;;;6.47;2.53;;;;;;;11.38;100.00;99440.16;5049877;28;20037;-71
2021/12/12 01:03:40;;;;;;;10.70;2.88;;;;;;;11.28;100.00;99421.03;5052980;28;20510;-73
2021/12/12 01:06:08;;;;;;;10.30;3.10;;;;;;;11.23;100.00;99409.75;5052773;28;20131;-74
2021/12/12 01:08:34;;;;;;;11.45;4.10;;;;;;;11.08;100.00;99393.13;5052793;28;20032;-73
2021/12/12 01:11:26;;;;;;;8.05;3.45;;;;;;;11.03;100.00;99396.47;5001362;28;20046;-73
2021/12/12 01:13:53;;;;;;;8.00;3.70;;;;;;;10.97;100.00;99377.44;4990447;28;20501;-77
2021/12/12 01:16:27;;;;;;;15.60;4.47;;;;;;;10.99;100.00;99367.13;5003578;28;20549;-77
2021/12/12 01:19:04;;;;;;;13.13;4.45;;;;;;;10.97;100.00;99381.75;5009662;28;20185;-74
2021/12/12 01:21:34;;;;;;;12.32;3.95;;;;;;;11.01;100.00;99368.03;5010236;28;20038;-74
2021/12/12 01:27:11;;;;;;;12.18;5.13;;;;;;;10.99;100.00;99431.69;5093766;23;20167;-69
2021/12/12 01:29:38;;;;;;;14.70;4.53;;;;;;;10.58;100.00;99365.56;5052492;28;20515;-69
2021/12/12 01:32:11;;;;;;;12.23;4.43;;;;;;;11.07;100.00;99445.63;5048362;28;20025;-72
2021/12/12 01:34:38;;;;;;;12.80;5.35;;;;;;;11.02;100.00;99439.53;5047291;28;20171;-73
2021/12/12 01:39:54;;;;;;;17.30;4.40;;;;;;;11.11;100.00;99446.56;5051517;28;20071;-73
2021/12/12 01:42:29;;;;;;;11.38;4.32;;;;;;;11.14;100.00;99465.56;5023437;28;20111;-73
2021/12/12 01:45:07;;;;;;;10.68;4.13;;;;;;;11.10;100.00;99474.13;5028393;28;20093;-74
2021/12/12 01:47:39;;;;;;;13.38;4.85;;;;;;;11.14;100.00;99482.78;5029175;28;20049;-73
2021/12/12 01:50:11;;;;;;;13.15;4.68;;;;;;;11.15;100.00;99487.09;5029222;28;20523;-71
2021/12/12 01:52:38;;;;;;;14.13;4.82;;;;;;;11.13;100.00;99484.50;4995947;28;20068;-72
2021/12/12 01:55:13;;;;;;;11.52;4.78;;;;;;;11.19;100.00;99488.03;5020168;28;20037;-72
2021/12/12 01:57:39;;;;;;;14.85;5.05;;;;;;;11.06;100.00;99482.63;5026171;28;20411;-73
2021/12/12 02:00:14;;;;;;;10.88;4.68;;;;;;;11.28;100.00;99521.81;5028565;28;20247;-72
2021/12/12 02:02:41;;;;;;;14.32;5.25;;;;;;;11.08;100.00;99503.31;5028656;28;20068;-72
2021/12/12 02:05:11;;;;;;;18.08;5.55;;;;;;;11.24;100.00;99563.91;5028477;28;20103;-72
2021/12/12 02:07:43;;;;;;;18.00;6.07;;;;;;;11.20;100.00;99544.03;5011496;28;20029;-74
2021/12/12 02:10:21;;;;;;;12.85;5.05;;;;;;;11.08;100.00;99540.38;5028760;28;20124;-72
2021/12/12 04:05:29;;;;;;;1.73;0.60;;;;;;;10.00;100.00;99548.28;5052939;28;20048;-72
2021/12/12 04:07:55;;;;;;;1.60;0.50;;;;;;;10.12;100.00;99573.47;5053222;28;20041;-71
2021/12/12 04:10:24;;;;;;;0.90;0.40;;;;;;;9.88;100.00;99533.38;5053472;28;20025;-76
2021/12/12 04:12:51;;;;;;;1.90;0.70;;;;;;;10.08;100.00;99561.38;5052370;28;20024;-71
2021/12/12 04:15:16;;;;;;;3.83;0.68;;;;;;;10.19;100.00;99581.44;5053007;28;20017;-72
2021/12/12 04:17:42;;;;;;;2.60;0.65;;;;;;;10.26;100.00;99581.59;5053129;28;20033;-72
2021/12/12 04:20:21;;;;;;;3.45;0.68;;;;;;;10.34;100.00;99569.72;5053189;28;20017;-72
2021/12/12 04:22:46;;;;;;;0.45;0.40;;;;;;;10.34;100.00;99577.47;5053408;28;20033;-72
2021/12/12 04:25:13;;;;;;;4.28;0.75;;;;;;;10.16;100.00;99550.38;5052791;28;20036;-72
2021/12/12 04:27:39;;;;;;;2.30;0.50;;;;;;;10.35;100.00;99579.22;5053113;28;20041;-70
2021/12/12 04:30:07;;;;;;;2.58;0.60;;;;;;;9.95;100.00;99524.97;5052978;28;20087;-70
2021/12/12 04:32:33;;;;;;;2.85;0.50;;;;;;;10.24;100.00;99565.19;5053022;28;20396;-72
2021/12/12 04:35:22;;;;;;;2.17;0.70;;;;;;;10.25;100.00;99582.41;5052869;28;20087;-72
2021/12/12 04:37:48;;;;;;;5.28;0.80;;;;;;;10.06;100.00;99539.84;5052630;28;20483;-72
2021/12/12 09:10:43;;;;;;;8.77;2.22;;;;;;;11.60;100.00;99881.75;5031502;28;20115;-74
2021/12/12 09:13:25;;;;;;;9.57;3.70;;;;;;;11.65;100.00;99879.25;5127925;22;20013;-73
2021/12/12 09:16:12;;;;;;;7.22;2.88;;;;;;;11.64;100.00;99856.84;5033378;28;20026;-70
2021/12/12 09:19:01;;;;;;;9.18;2.38;;;;;;;11.76;100.00;99871.72;5033459;28;20025;-70
2021/12/12 09:21:47;;;;;;;6.05;1.90;;;;;;;11.81;100.00;99886.53;5033334;28;20542;-70
2021/12/12 09:24:44;;;;;;;4.75;1.52;;;;;;;11.80;100.00;99899.41;5016668;28;20041;-71
2021/12/12 09:27:23;;;;;;;5.07;1.50;;;;;;;11.76;100.00;99902.75;4933575;29;20032;-70
2021/12/12 09:29:56;;;;;;;4.13;1.00;;;;;;;11.75;100.00;99907.06;4933512;29;20023;-70
2021/12/12 09:32:45;;;;;;;3.85;1.13;;;;;;;11.82;100.00;99913.25;4933685;29;20146;-72
2021/12/12 09:35:16;;;;;;;5.60;1.23;;;;;;;11.87;100.00;99913.38;4933677;29;20035;-70
2021/12/12 09:37:47;;;;;;;2.00;0.73;;;;;;;11.88;100.00;99909.94;4917838;29;20064;-72
2021/12/12 09:40:23;;;;;;;6.43;1.23;;;;;;;11.81;100.00;99920.16;4933527;29;20553;-71
2021/12/12 09:43:27;;;;;;;3.92;0.80;;;;;;;11.81;100.00;99895.97;4933434;29;20074;-70
2021/12/12 09:46:31;;;;;;;6.75;1.65;;;;;;;11.48;100.00;99853.00;4914395;29;20582;-70
2021/12/12 09:52:33;;;;;;;5.97;1.25;;;;;;;11.86;100.00;99907.28;4858414;29;20090;-70
2021/12/12 09:55:12;;;;;;;4.50;1.40;;;;;;;11.86;100.00;99903.84;4858041;29;20117;-72
2021/12/12 09:57:49;;;;;;;6.00;1.67;;;;;;;11.77;100.00;99882.09;4829946;29;20061;-70
2021/12/12 10:00:32;;;;;;;3.35;1.17;;;;;;;11.83;100.00;99891.72;4858004;29;20042;-71
2021/12/12 10:03:07;;;;;;;3.03;1.00;;;;;;;11.75;100.00;99867.41;4861531;29;20037;-70
2021/12/12 10:05:42;;;;;;;7.40;1.50;;;;;;;11.96;100.00;99887.72;4933002;29;20468;-70
2021/12/12 10:08:32;;;;;;;4.90;1.08;;;;;;;12.21;100.00;99875.31;4933051;29;20031;-70
2021/12/12 10:11:03;;;;;;;3.50;1.10;;;;;;;12.19;100.00;99794.22;4932953;29;20079;-70
2021/12/12 10:13:38;;;;;;;7.47;1.65;;;;;;;12.72;100.00;99863.34;4932590;29;20594;-70
2021/12/12 10:16:14;;;;;;;7.25;1.65;;;;;;;12.90;100.00;99874.06;4932847;29;20044;-70
2021/12/12 10:22:31;;;;;;;4.68;1.38;;;;;;;13.08;100.00;99868.34;4937020;29;20082;-70
2021/12/12 10:25:07;;;;;;;5.60;1.25;;;;;;;13.08;100.00;99838.94;4959014;28;20034;-71
2021/12/12 10:27:49;;;;;;;11.30;1.73;;;;;;;13.36;100.00;99873.09;4996978;28;20029;-71
2021/12/12 10:30:21;;;;;;;4.38;1.33;;;;;;;13.22;100.00;99854.72;5032230;28;20033;-74
2021/12/12 10:33:08;;;;;;;4.97;1.30;;;;;;;13.04;100.00;99840.59;5031924;28;20033;-71
2021/12/12 10:35:58;;;;;;;2.65;1.30;;;;;;;13.24;100.00;99887.56;5031923;28;20025;-74
2021/12/12 10:38:51;;;;;;;5.00;1.13;;;;;;;13.02;100.00;99901.03;5032106;28;20025;-71
2021/12/12 10:41:31;;;;;;;8.43;1.50;;;;;;;12.78;100.00;99905.81;5031808;28;20029;-70
2021/12/12 10:44:08;;;;;;;3.55;1.30;;;;;;;12.53;100.00;99864.75;5031664;28;20031;-73
2021/12/12 10:46:46;;;;;;;6.13;1.75;;;;;;;12.57;100.00;99895.00;5031657;28;20079;-71
2021/12/12 10:49:15;;;;;;;9.15;1.48;;;;;;;12.46;100.00;99908.63;5031834;28;20071;-73
2021/12/12 10:51:49;;;;;;;7.25;2.15;;;;;;;12.41;100.00;99920.59;5031524;28;20091;-71
2021/12/12 10:54:22;;;;;;;8.05;1.50;;;;;;;12.30;100.00;99917.78;5031647;28;20061;-72
2021/12/12 10:57:00;;;;;;;6.55;1.50;;;;;;;12.23;100.00;99915.03;5031487;28;20025;-74
2021/12/12 10:59:52;;;;;;;8.73;1.75;;;;;;;12.08;100.00;99918.19;5031569;28;20064;-73
2021/12/12 11:02:24;;;;;;;5.80;1.20;;;;;;;12.10;100.00;99926.81;5031199;28;20029;-73
2021/12/12 11:05:01;;;;;;;4.03;1.63;;;;;;;12.06;100.00;99923.31;5031177;28;20048;-73
2021/12/12 11:07:31;;;;;;;5.00;1.75;;;;;;;11.92;100.00;99917.78;5030321;28;20033;-75
2021/12/12 11:10:09;;;;;;;;;;;;;;;11.86;100.00;99911.63;5030302;28;20064;-77
2021/12/12 11:12:43;;;;;;;3.45;1.10;;;;;;;11.61;100.00;99891.25;5028906;28;20384;-74
2021/12/12 11:15:20;;;;;;;9.40;2.17;;;;;;;11.74;100.00;99918.25;5027801;28;20054;-74
2021/12/12 11:17:55;;;;;;;7.15;2.03;;;;;;;11.17;100.00;99785.97;5027760;28;20104;-74
2021/12/12 11:20:26;;;;;;;7.20;1.65;;;;;;;11.87;100.00;99905.59;5030318;28;20021;-76
2021/12/12 11:23:00;;;;;;;6.70;2.60;;;;;;;11.81;100.00;99899.47;5029838;28;20037;-74
2021/12/12 11:25:42;;;;;;;6.32;1.70;;;;;;;11.88;100.00;99917.69;5030697;28;20079;-74
2021/12/12 11:28:32;;;;;;;5.75;1.45;;;;;;;11.88;100.00;99886.66;5013328;28;20029;-74
2021/12/12 11:31:05;;;;;;;9.38;1.55;;;;;;;12.10;100.00;99909.59;5010743;28;20032;-74
2021/12/12 11:33:35;;;;;;;3.78;1.48;;;;;;;11.95;100.00;99898.88;5010801;28;20022;-74
2021/12/12 11:36:05;;;;;;;;;;;;;;;12.06;100.00;99899.16;4994001;28;20437;-74
2021/12/12 11:38:46;;;;;;;6.00;1.40;;;;;;;12.20;100.00;99905.50;5010600;28;20368;-72
2021/12/12 11:41:19;;;;;;;11.65;3.00;;;;;;;12.11;100.00;99877.72;5023634;28;20495;-74
2021/12/12 11:43:55;;;;;;;5.55;1.30;;;;;;;12.34;100.00;99916.16;5026855;28;20179;-74
2021/12/12 11:46:35;;;;;;;4.57;1.10;;;;;;;12.43;100.00;99913.72;5030442;28;20029;-73
2021/12/12 11:49:22;;;;;;;6.70;1.50;;;;;;;12.50;100.00;99893.13;5030367;28;20152;-73
2021/12/12 11:52:10;;;;;;;6.20;1.90;;;;;;;12.47;100.00;99917.25;5030482;28;20026;-74
2021/12/12 11:55:15;;;;;;;8.35;2.78;;;;;;;12.34;100.00;99916.16;5030355;28;20025;-73
2021/12/12 11:58:00;;;;;;;3.92;2.03;;;;;;;12.23;100.00;99886.56;5030351;28;20790;-74
2021/12/12 12:00:38;;;;;;;5.75;1.88;;;;;;;12.17;100.00;99894.22;5011621;28;20063;-74
2021/12/12 12:03:32;;;;;;;5.63;1.45;;;;;;;12.29;100.00;99890.16;5030180;28;20104;-74
2021/12/12 12:06:19;;;;;;;10.45;1.98;;;;;;;12.06;100.00;99848.28;5030811;28;20137;-74
2021/12/12 14:02:09;;;;;;;6.38;1.10;;;;;;;11.08;100.00;99927.84;5027597;28;20060;-75
2021/12/12 14:04:50;;;;;;;6.95;1.17;;;;;;;11.15;100.00;99929.75;5026441;28;20087;-76
2021/12/12 14:07:19;;;;;;;3.33;0.85;;;;;;;11.08;100.00;99921.78;5025030;28;20056;-75
2021/12/12 14:09:48;;;;;;;4.50;1.30;;;;;;;11.20;100.00;99944.50;5029316;28;20091;-75
2021/12/12 14:12:15;;;;;;;3.70;1.27;;;;;;;11.14;100.00;99930.59;5031226;28;20021;-76
2021/12/12 14:14:59;;;;;;;3.85;1.00;;;;;;;11.14;100.00;99940.03;5030716;28;20139;-76
2021/12/12 14:17:35;;;;;;;5.35;1.10;;;;;;;10.91;100.00;99911.88;5028803;28;20025;-76
2021/12/12 14:20:14;;;;;;;3.95;1.40;;;;;;;11.10;100.00;99954.59;5030881;28;20079;-76
2021/12/12 14:22:43;;;;;;;4.88;1.15;;;;;;;11.03;100.00;99944.94;5030922;28;20025;-75
2021/12/12 14:25:10;;;;;;;4.13;1.65;;;;;;;10.92;100.00;99936.03;5030752;28;20531;-74
2021/12/12 14:27:40;;;;;;;3.67;1.00;;;;;;;10.91;100.00;99940.28;5030980;28;20381;-77
2021/12/12 15:33:43;;;;;;;6.40;2.58;;;;;;;10.13;100.00;100003.38;5024346;28;20055;-76
2021/12/12 15:36:15;;;;;;;6.35;2.22;;;;;;;10.10;100.00;100003.31;5030154;28;20056;-76
2021/12/12 15:38:46;;;;;;;4.35;2.28;;;;;;;10.00;100.00;99997.84;5026683;28;20041;-76
2021/12/12 15:41:17;;;;;;;7.03;2.15;;;;;;;9.98;100.00;99993.47;5021571;28;20022;-76
2021/12/12 15:43:49;;;;;;;6.25;2.00;;;;;;;10.09;100.00;100019.59;5010756;28;20465;-78
2021/12/12 15:46:18;;;;;;;4.95;1.70;;;;;;;10.01;100.00;100017.66;5008242;28;20046;-75
2021/12/12 15:48:52;;;;;;;7.22;2.03;;;;;;;10.02;100.00;100018.53;5007940;28;20081;-76
2021/12/12 15:51:26;;;;;;;6.10;2.10;;;;;;;9.98;100.00;100033.03;5008153;28;20030;-76
2021/12/12 15:54:03;;;;;;;4.95;1.48;;;;;;;9.98;100.00;100032.16;5010794;28;20547;-75
2021/12/12 15:56:48;;;;;;;7.28;2.20;;;;;;;10.02;100.00;100034.03;5012235;28;20041;-77
2021/12/12 15:59:30;;;;;;;3.15;1.30;;;;;;;9.96;100.00;100041.56;5012289;28;20428;-75
2021/12/12 16:02:03;;;;;;;5.63;3.20;;;;;;;9.98;100.00;100043.34;5011996;28;20129;-76
2021/12/12 16:04:31;;;;;;;7.10;2.00;;;;;;;9.91;100.00;100032.81;5015618;28;20123;-71
2021/12/12 16:07:01;;;;;;;6.53;1.92;;;;;;;9.76;100.00;100003.09;4979936;28;20041;-75
2021/12/12 16:09:35;;;;;;;5.50;1.80;;;;;;;10.01;100.00;100051.19;5015784;28;20022;-71
2021/12/12 16:12:06;;;;;;;5.57;1.63;;;;;;;9.95;100.00;100044.97;4980382;28;20034;-78
2021/12/12 16:14:32;;;;;;;8.57;1.80;;;;;;;9.83;100.00;100020.53;5012163;28;20033;-74
2021/12/12 16:16:59;;;;;;;6.38;1.77;;;;;;;9.94;100.00;100048.34;5012971;28;20076;-73
2021/12/12 16:19:31;;;;;;;8.63;1.63;;;;;;;9.98;100.00;100058.84;5014769;28;20053;-75
2021/12/12 16:22:01;;;;;;;6.43;1.83;;;;;;;9.98;100.00;100055.34;5014400;28;20061;-74
2021/12/12 17:47:53;;;;;;;7.53;5.70;;;;;;;8.81;100.00;100206.59;5012016;28;20052;-74
2021/12/12 17:50:20;;;;;;;9.68;5.78;;;;;;;8.69;100.00;100212.16;5012959;28;20120;-74
2021/12/12 17:52:57;;;;;;;8.70;5.25;;;;;;;8.62;100.00;100215.28;5012848;28;20028;-73
2021/12/12 17:55:38;;;;;;;8.90;5.75;;;;;;;8.57;100.00;100221.13;5012769;28;20024;-77
2021/12/12 17:58:28;;;;;;;8.45;5.55;;;;;;;8.44;100.00;100231.69;5012756;28;20444;-78
2021/12/12 18:01:20;;;;;;;9.15;6.47;;;;;;;8.20;100.00;100191.28;4978031;28;20034;-74
2021/12/12 18:03:49;;;;;;;10.93;6.28;;;;;;;8.51;100.00;100241.47;5012575;28;20101;-77
2021/12/12 18:06:18;;;;;;;10.45;7.03;;;;;;;8.61;100.00;100234.13;5012722;28;20022;-82
2021/12/12 18:09:07;;;;;;;11.68;8.15;;;;;;;8.41;100.00;100253.03;5012767;28;20116;-78
2021/12/12 18:11:48;;;;;;;12.13;7.13;;;;;;;8.25;100.00;100258.34;4995087;28;20022;-82
2021/12/12 18:14:20;;;;;;;10.38;6.85;;;;;;;8.32;100.00;100256.91;5012677;28;20034;-78
2021/12/12 18:17:05;;;;;;;10.98;7.18;;;;;;;8.55;100.00;100260.50;5012228;28;20038;-78
2021/12/12 18:19:59;;;;;;;8.75;6.53;;;;;;;8.48;100.00;100264.47;5012475;28;20022;-78
2021/12/12 18:22:44;;;;;;;8.00;5.65;;;;;;;8.32;100.00;100268.06;5013623;28;20028;-77
2021/12/12 18:25:16;;;;;;;9.45;6.68;;;;;;;8.34;100.00;100275.88;5032219;28;20025;-78
2021/12/12 18:27:44;;;;;;;10.93;6.45;;;;;;;8.20;100.00;100255.56;5032063;28;20036;-78
2021/12/12 18:30:13;;;;;;;9.03;6.20;;;;;;;8.12;100.00;100271.47;5031952;28;20029;-79
2021/12/12 18:32:46;;;;;;;7.68;5.70;;;;;;;7.75;100.00;100252.72;5031912;28;20268;-73
2021/12/12 18:35:14;;;;;;;8.32;5.32;;;;;;;7.57;100.00;100243.38;5031681;28;20029;-73
2021/12/12 18:37:45;;;;;;;9.38;6.95;;;;;;;7.73;100.00;100262.06;5031935;28;20025;-79
2021/12/12 18:40:19;;;;;;;10.27;6.97;;;;;;;7.83;100.00;100274.50;5030658;28;20495;-76
2021/12/12 18:42:50;;;;;;;7.47;5.72;;;;;;;7.68;100.00;100276.41;5003630;28;20034;-73
2021/12/12 18:45:20;;;;;;;7.95;5.57;;;;;;;7.38;100.00;100294.72;5022928;28;20032;-79
2021/12/12 18:47:53;;;;;;;7.90;5.20;;;;;;;7.02;100.00;100256.25;5020916;28;20128;-76
2021/12/12 18:50:33;;;;;;;9.02;5.28;;;;;;;7.37;100.00;100295.53;5011567;28;20030;-79
2021/12/12 18:53:06;;;;;;;7.63;5.30;;;;;;;7.20;100.00;100298.19;5026678;28;20017;-74
2021/12/12 18:55:34;;;;;;;7.53;5.78;;;;;;;7.28;100.00;100289.16;5030573;28;20031;-76
2021/12/12 18:58:21;;;;;;;7.70;5.70;;;;;;;7.12;100.00;100276.41;5030480;28;20025;-74
2021/12/12 19:00:51;;;;;;;7.80;5.70;;;;;;;6.98;100.00;100291.13;4993595;28;20041;-81
2021/12/12 19:03:25;;;;;;;8.35;5.43;;;;;;;7.13;100.00;100293.56;5013740;28;20050;-77
2021/12/12 19:05:52;;;;;;;7.45;5.45;;;;;;;6.60;100.00;100264.47;5011179;28;20033;-76
2021/12/12 19:08:29;;;;;;;6.97;4.95;;;;;;;6.70;100.00;100284.63;4992346;28;20037;-75
2021/12/12 19:10:59;;;;;;;6.57;4.97;;;;;;;6.92;100.00;100312.25;5011285;28;20069;-76
2021/12/12 19:13:28;;;;;;;10.35;5.70;;;;;;;6.80;100.00;100284.31;5011157;28;20584;-74
2021/12/12 19:15:56;;;;;;;8.38;5.70;;;;;;;7.19;100.00;100340.06;5011209;28;20025;-76
2021/12/12 19:18:27;;;;;;;7.38;5.95;;;;;;;7.11;100.00;100319.13;5009680;28;20052;-80
2021/12/12 19:20:57;;;;;;;6.68;5.10;;;;;;;7.13;100.00;100347.47;5011099;28;20125;-75
2021/12/12 19:23:40;;;;;;;9.23;5.20;;;;;;;6.68;100.00;100339.25;5009433;28;20389;-73
2021/12/12 19:26:09;;;;;;;7.35;4.90;;;;;;;6.59;100.00;100343.13;4992031;28;20069;-74
2021/12/12 19:28:37;;;;;;;;;;;;;;;6.71;100.00;100375.31;5009648;28;20021;-76
2021/12/12 19:31:09;;;;;;;7.68;5.10;;;;;;;6.59;100.00;100367.88;5010275;28;20295;-74
2021/12/12 19:33:36;;;;;;;7.05;4.72;;;;;;;6.43;100.00;100371.31;4991757;28;20504;-75
2021/12/12 19:36:04;;;;;;;6.18;4.40;;;;;;;6.37;100.00;100371.00;4992941;28;20045;-76
2021/12/12 19:38:35;;;;;;;7.32;5.18;;;;;;;6.42;100.00;100374.72;5010617;28;20022;-77
2021/12/12 19:41:13;;;;;;;6.97;5.18;;;;;;;6.34;100.00;100365.72;5005506;28;20014;-77
2021/12/12 19:43:47;;;;;;;10.77;7.22;;;;;;;6.44;100.00;100371.44;5008546;28;20052;-75
2021/12/12 19:46:16;;;;;;;8.10;6.20;;;;;;;6.58;100.00;100382.41;5010534;28;20034;-76
2021/12/12 19:48:45;;;;;;;7.57;5.47;;;;;;;6.40;100.00;100361.78;5010076;28;20092;-78
2021/12/12 19:51:20;;;;;;;6.80;5.07;;;;;;;6.56;100.00;100373.72;5015664;28;20029;-76
2021/12/12 19:53:52;;;;;;;7.20;5.10;;;;;;;6.50;100.00;100357.16;5020793;28;20415;-77
2021/12/12 19:56:20;;;;;;;7.45;4.88;;;;;;;6.67;100.00;100387.13;4984523;28;20124;-77
2021/12/12 19:58:53;;;;;;;8.35;5.05;;;;;;;6.63;100.00;100375.81;4992723;28;20026;-72
2021/12/12 20:01:25;;;;;;;7.68;4.82;;;;;;;6.70;100.00;100391.53;5023838;28;20029;-76
2021/12/12 20:03:57;;;;;;;6.97;5.07;;;;;;;6.60;100.00;100380.81;5029878;28;20026;-75
2021/12/12 20:06:29;;;;;;;7.25;5.20;;;;;;;6.82;100.00;100375.84;5027858;28;20103;-76
2021/12/12 20:09:10;;;;;;;7.32;4.68;;;;;;;6.89;100.00;100389.09;5029413;28;20459;-75
2021/12/12 20:11:41;;;;;;;10.57;5.57;;;;;;;7.03;100.00;100381.19;5030154;28;20025;-78
2021/12/12 20:14:12;;;;;;;7.15;4.90;;;;;;;6.70;100.00;100335.94;5030306;28;20025;-78
2021/12/12 20:16:42;;;;;;;8.35;5.80;;;;;;;6.86;100.00;100377.78;5010583;28;20137;-80
2021/12/12 20:19:21;;;;;;;7.50;4.93;;;;;;;6.72;100.00;100365.13;5009585;28;20385;-75
2021/12/12 20:21:53;;;;;;;9.00;5.70;;;;;;;6.64;100.00;100384.38;5014603;28;20026;-77
2021/12/12 20:24:28;;;;;;;6.50;4.88;;;;;;;6.47;100.00;100312.59;5023275;28;20030;-77
2021/12/12 20:27:03;;;;;;;6.43;4.53;;;;;;;7.08;100.00;100390.00;5011763;28;20025;-77
2021/12/12 20:29:34;;;;;;;7.53;4.30;;;;;;;6.97;100.00;100371.50;5000928;28;20040;-77
2021/12/12 20:32:30;;;;;;;6.63;4.53;;;;;;;7.10;100.00;100391.84;5023658;28;20036;-76
2021/12/12 20:34:58;;;;;;;5.55;3.90;;;;;;;6.68;100.00;100368.34;4934772;29;20040;-74
2021/12/12 20:37:27;;;;;;;7.40;4.47;;;;;;;6.68;100.00;100372.59;4933628;29;20058;-77
2021/12/12 20:40:01;;;;;;;7.53;4.70;;;;;;;6.60;100.00;100360.28;4936666;29;20035;-73
2021/12/12 20:42:31;;;;;;;8.30;4.80;;;;;;;6.97;100.00;100402.31;4932720;29;20271;-76
2021/12/12 20:45:04;;;;;;;6.93;4.75;;;;;;;6.86;100.00;100360.69;4936887;29;20046;-78
2021/12/12 20:47:37;;;;;;;9.02;5.28;;;;;;;6.83;100.00;100357.09;4935379;29;20058;-75
2021/12/12 20:50:10;;;;;;;7.05;4.45;;;;;;;6.84;100.00;100400.81;4930511;29;20035;-76
2021/12/12 20:52:41;;;;;;;7.15;5.20;;;;;;;6.91;100.00;100402.88;4920733;29;20052;-76
2021/12/12 20:55:28;;;;;;;6.75;5.07;;;;;;;7.06;100.00;100412.16;4914465;29;20044;-77
2021/12/12 20:58:12;;;;;;;8.23;5.03;;;;;;;6.73;100.00;100381.41;4914479;29;20047;-77
2021/12/12 21:00:43;;;;;;;8.40;5.20;;;;;;;6.95;100.00;100421.88;4901085;29;20040;-76
2021/12/12 21:03:11;;;;;;;8.27;5.32;;;;;;;6.63;100.00;100392.91;4913856;29;20416;-78
2021/12/12 21:05:44;;;;;;;7.30;5.15;;;;;;;6.92;100.00;100424.28;4914131;29;20036;-79
2021/12/12 21:08:11;;;;;;;7.22;5.18;;;;;;;6.97;100.00;100425.41;4914372;29;20044;-75
2021/12/12 21:10:45;;;;;;;7.05;5.10;;;;;;;7.03;100.00;100435.09;4920137;28;20496;-76
2021/12/12 21:13:32;;;;;;;6.97;4.82;;;;;;;7.06;100.00;100435.25;4989206;28;20117;-75
2021/12/12 21:16:01;;;;;;;7.63;5.22;;;;;;;6.94;100.00;100433.84;4952232;29;20039;-75
2021/12/12 21:18:33;;;;;;;7.47;4.90;;;;;;;7.04;100.00;100424.91;4952397;29;20042;-72
2021/12/12 21:21:03;;;;;;;7.78;4.80;;;;;;;6.97;100.00;100385.22;4952339;29;20509;-77
2021/12/12 21:23:36;;;;;;;8.65;5.43;;;;;;;7.13;100.00;100429.63;4952250;29;20043;-77
2021/12/12 21:26:06;;;;;;;9.23;5.57;;;;;;;6.79;100.00;100425.34;4951866;29;20031;-75
2021/12/12 21:28:37;;;;;;;9.48;6.22;;;;;;;6.63;100.00;100423.69;4952000;29;20538;-73
